sensor_id;sensor_type;location;lat;lon;timestamp;P1;durP1;ratioP1;P2;durP2;ratioP2
23470;SDS011;11908;50.806;4.424;2022-12-07T00:00:52;23.27;;;16.33;;
23470;SDS011;11908;50.806;4.424;2022-12-07T00:03:18;23.13;;;16.80;;
23470;SDS011;11908;50.806;4.424;2022-12-07T00:05:44;28.35;;;17.83;;
23470;SDS011;11908;50.806;4.424;2022-12-07T00:08:09;26.67;;;18.17;;
23470;SDS011;11908;50.806;4.424;2022-12-07T00:10:35;24.52;;;18.73;;
23470;SDS011;11908;50.806;4.424;2022-12-07T00:13:01;25.90;;;17.67;;
23470;SDS011;11908;50.806;4.424;2022-12-07T00:15:26;29.92;;;19.73;;
23470;SDS011;11908;50.806;4.424;2022-12-07T00:17:52;32.60;;;20.48;;
23470;SDS011;11908;50.806;4.424;2022-12-07T00:20:17;26.58;;;18.88;;
23470;SDS011;11908;50.806;4.424;2022-12-07T00:22:43;28.85;;;20.17;;
23470;SDS011;11908;50.806;4.424;2022-12-07T00:25:09;29.50;;;19.10;;
23470;SDS011;11908;50.806;4.424;2022-12-07T00:27:34;35.95;;;20.10;;
23470;SDS011;11908;50.806;4.424;2022-12-07T00:30:00;36.47;;;21.02;;
23470;SDS011;11908;50.806;4.424;2022-12-07T00:32:26;27.77;;;19.60;;
23470;SDS011;11908;50.806;4.424;2022-12-07T00:34:58;29.67;;;19.95;;
23470;SDS011;11908;50.806;4.424;2022-12-07T00:37:24;33.83;;;20.50;;
23470;SDS011;11908;50.806;4.424;2022-12-07T00:39:49;28.00;;;20.63;;
23470;SDS011;11908;50.806;4.424;2022-12-07T00:42:15;31.60;;;22.35;;
23470;SDS011;11908;50.806;4.424;2022-12-07T00:44:41;30.95;;;21.40;;
23470;SDS011;11908;50.806;4.424;2022-12-07T00:47:06;34.50;;;21.65;;
23470;SDS011;11908;50.806;4.424;2022-12-07T00:49:32;30.42;;;21.17;;
23470;SDS011;11908;50.806;4.424;2022-12-07T00:51:57;32.28;;;22.15;;
23470;SDS011;11908;50.806;4.424;2022-12-07T00:54:23;35.85;;;23.05;;
23470;SDS011;11908;50.806;4.424;2022-12-07T00:56:49;36.92;;;23.10;;
23470;SDS011;11908;50.806;4.424;2022-12-07T00:59:14;29.50;;;21.67;;
23470;SDS011;11908;50.806;4.424;2022-12-07T01:01:40;31.42;;;20.45;;
23470;SDS011;11908;50.806;4.424;2022-12-07T01:04:06;30.30;;;20.40;;
23470;SDS011;11908;50.806;4.424;2022-12-07T01:06:32;29.10;;;20.30;;
23470;SDS011;11908;50.806;4.424;2022-12-07T01:08:58;29.45;;;20.27;;
23470;SDS011;11908;50.806;4.424;2022-12-07T01:11:25;35.53;;;21.30;;
23470;SDS011;11908;50.806;4.424;2022-12-07T01:13:53;28.15;;;20.00;;
23470;SDS011;11908;50.806;4.424;2022-12-07T01:16:21;29.35;;;20.67;;
23470;SDS011;11908;50.806;4.424;2022-12-07T01:18:49;30.58;;;21.05;;
23470;SDS011;11908;50.806;4.424;2022-12-07T01:21:17;29.33;;;19.92;;
23470;SDS011;11908;50.806;4.424;2022-12-07T01:23:46;34.00;;;21.52;;
23470;SDS011;11908;50.806;4.424;2022-12-07T01:26:12;31.23;;;19.83;;
23470;SDS011;11908;50.806;4.424;2022-12-07T01:28:39;30.30;;;20.88;;
23470;SDS011;11908;50.806;4.424;2022-12-07T01:31:09;31.98;;;21.20;;
23470;SDS011;11908;50.806;4.424;2022-12-07T01:33:37;29.20;;;19.55;;
23470;SDS011;11908;50.806;4.424;2022-12-07T01:36:04;34.80;;;19.83;;
23470;SDS011;11908;50.806;4.424;2022-12-07T01:38:38;28.95;;;20.15;;
23470;SDS011;11908;50.806;4.424;2022-12-07T01:41:04;29.58;;;21.02;;
23470;SDS011;11908;50.806;4.424;2022-12-07T01:43:30;36.88;;;20.77;;
23470;SDS011;11908;50.806;4.424;2022-12-07T01:45:57;28.77;;;20.33;;
23470;SDS011;11908;50.806;4.424;2022-12-07T01:48:27;34.78;;;19.95;;
23470;SDS011;11908;50.806;4.424;2022-12-07T01:50:59;28.98;;;19.67;;
23470;SDS011;11908;50.806;4.424;2022-12-07T01:53:29;31.15;;;19.48;;
23470;SDS011;11908;50.806;4.424;2022-12-07T01:55:55;31.88;;;19.90;;
23470;SDS011;11908;50.806;4.424;2022-12-07T01:58:23;29.42;;;18.77;;
23470;SDS011;11908;50.806;4.424;2022-12-07T02:00:49;26.75;;;19.08;;
23470;SDS011;11908;50.806;4.424;2022-12-07T02:03:17;26.25;;;17.52;;
23470;SDS011;11908;50.806;4.424;2022-12-07T02:05:47;30.65;;;18.05;;
23470;SDS011;11908;50.806;4.424;2022-12-07T02:08:14;28.38;;;18.85;;
23470;SDS011;11908;50.806;4.424;2022-12-07T02:10:41;25.70;;;18.55;;
23470;SDS011;11908;50.806;4.424;2022-12-07T02:13:14;30.67;;;19.08;;
23470;SDS011;11908;50.806;4.424;2022-12-07T02:18:38;31.73;;;19.50;;
23470;SDS011;11908;50.806;4.424;2022-12-07T02:26:13;28.98;;;17.55;;
23470;SDS011;11908;50.806;4.424;2022-12-07T02:29:12;27.45;;;17.63;;
23470;SDS011;11908;50.806;4.424;2022-12-07T02:37:29;30.20;;;18.38;;
23470;SDS011;11908;50.806;4.424;2022-12-07T02:39:59;26.88;;;18.42;;
23470;SDS011;11908;50.806;4.424;2022-12-07T02:42:43;26.27;;;17.50;;
23470;SDS011;11908;50.806;4.424;2022-12-07T02:45:13;35.47;;;17.93;;
23470;SDS011;11908;50.806;4.424;2022-12-07T02:47:42;28.15;;;18.70;;
23470;SDS011;11908;50.806;4.424;2022-12-07T02:50:09;24.02;;;17.77;;
23470;SDS011;11908;50.806;4.424;2022-12-07T02:52:35;26.20;;;17.38;;
23470;SDS011;11908;50.806;4.424;2022-12-07T02:55:01;26.25;;;17.42;;
23470;SDS011;11908;50.806;4.424;2022-12-07T03:00:20;22.15;;;16.35;;
23470;SDS011;11908;50.806;4.424;2022-12-07T03:11:00;22.65;;;16.33;;
23470;SDS011;11908;50.806;4.424;2022-12-07T03:13:48;22.88;;;16.15;;
23470;SDS011;11908;50.806;4.424;2022-12-07T03:17:00;21.13;;;15.07;;
23470;SDS011;11908;50.806;4.424;2022-12-07T03:19:35;23.08;;;15.45;;
23470;SDS011;11908;50.806;4.424;2022-12-07T03:22:02;22.10;;;15.88;;
23470;SDS011;11908;50.806;4.424;2022-12-07T03:24:41;27.35;;;17.42;;
23470;SDS011;11908;50.806;4.424;2022-12-07T03:29:43;28.63;;;15.30;;
23470;SDS011;11908;50.806;4.424;2022-12-07T03:32:15;24.23;;;16.52;;
23470;SDS011;11908;50.806;4.424;2022-12-07T03:38:00;22.67;;;15.90;;
23470;SDS011;11908;50.806;4.424;2022-12-07T03:41:01;25.65;;;16.52;;
23470;SDS011;11908;50.806;4.424;2022-12-07T03:43:39;24.08;;;16.77;;
23470;SDS011;11908;50.806;4.424;2022-12-07T03:46:17;27.27;;;18.17;;
23470;SDS011;11908;50.806;4.424;2022-12-07T03:54:37;23.98;;;15.50;;
23470;SDS011;11908;50.806;4.424;2022-12-07T03:57:08;26.65;;;16.55;;
23470;SDS011;11908;50.806;4.424;2022-12-07T03:59:36;24.42;;;15.98;;
23470;SDS011;11908;50.806;4.424;2022-12-07T04:02:04;21.58;;;16.48;;
23470;SDS011;11908;50.806;4.424;2022-12-07T04:04:31;23.25;;;15.98;;
23470;SDS011;11908;50.806;4.424;2022-12-07T04:06:58;24.35;;;15.40;;
23470;SDS011;11908;50.806;4.424;2022-12-07T04:09:23;23.70;;;15.68;;
23470;SDS011;11908;50.806;4.424;2022-12-07T04:11:49;21.95;;;15.75;;
23470;SDS011;11908;50.806;4.424;2022-12-07T04:14:15;26.70;;;15.65;;
23470;SDS011;11908;50.806;4.424;2022-12-07T04:17:04;19.98;;;15.18;;
23470;SDS011;11908;50.806;4.424;2022-12-07T04:19:30;21.35;;;15.85;;
23470;SDS011;11908;50.806;4.424;2022-12-07T04:21:58;21.17;;;14.88;;
23470;SDS011;11908;50.806;4.424;2022-12-07T04:24:24;23.85;;;15.35;;
23470;SDS011;11908;50.806;4.424;2022-12-07T04:26:50;21.58;;;15.20;;
23470;SDS011;11908;50.806;4.424;2022-12-07T04:29:16;22.17;;;15.70;;
23470;SDS011;11908;50.806;4.424;2022-12-07T04:31:43;25.00;;;15.85;;
23470;SDS011;11908;50.806;4.424;2022-12-07T04:34:09;22.13;;;15.07;;
23470;SDS011;11908;50.806;4.424;2022-12-07T04:36:35;23.05;;;15.45;;
23470;SDS011;11908;50.806;4.424;2022-12-07T04:39:01;25.38;;;15.95;;
23470;SDS011;11908;50.806;4.424;2022-12-07T04:41:28;23.55;;;14.20;;
23470;SDS011;11908;50.806;4.424;2022-12-07T04:43:54;23.88;;;15.30;;
23470;SDS011;11908;50.806;4.424;2022-12-07T04:46:22;23.42;;;15.77;;
23470;SDS011;11908;50.806;4.424;2022-12-07T04:48:48;22.88;;;15.73;;
23470;SDS011;11908;50.806;4.424;2022-12-07T04:51:15;30.10;;;16.40;;
23470;SDS011;11908;50.806;4.424;2022-12-07T04:53:46;27.02;;;17.45;;
23470;SDS011;11908;50.806;4.424;2022-12-07T04:56:11;26.17;;;16.30;;
23470;SDS011;11908;50.806;4.424;2022-12-07T04:58:38;22.40;;;16.88;;
23470;SDS011;11908;50.806;4.424;2022-12-07T05:01:04;31.77;;;16.35;;
23470;SDS011;11908;50.806;4.424;2022-12-07T05:03:29;32.10;;;18.10;;
23470;SDS011;11908;50.806;4.424;2022-12-07T05:05:55;28.05;;;16.95;;
23470;SDS011;11908;50.806;4.424;2022-12-07T05:08:20;29.30;;;17.23;;
23470;SDS011;11908;50.806;4.424;2022-12-07T05:10:48;30.15;;;17.63;;
23470;SDS011;11908;50.806;4.424;2022-12-07T05:13:14;25.40;;;17.63;;
23470;SDS011;11908;50.806;4.424;2022-12-07T05:15:40;25.35;;;16.60;;
23470;SDS011;11908;50.806;4.424;2022-12-07T05:18:08;27.77;;;16.88;;
23470;SDS011;11908;50.806;4.424;2022-12-07T05:20:34;27.70;;;17.13;;
23470;SDS011;11908;50.806;4.424;2022-12-07T05:23:00;22.15;;;16.35;;
23470;SDS011;11908;50.806;4.424;2022-12-07T05:25:25;24.88;;;17.08;;
23470;SDS011;11908;50.806;4.424;2022-12-07T05:27:51;29.75;;;17.05;;
23470;SDS011;11908;50.806;4.424;2022-12-07T05:30:17;28.70;;;17.05;;
23470;SDS011;11908;50.806;4.424;2022-12-07T05:32:42;27.05;;;17.92;;
23470;SDS011;11908;50.806;4.424;2022-12-07T05:35:08;29.02;;;17.88;;
23470;SDS011;11908;50.806;4.424;2022-12-07T05:37:34;23.65;;;16.60;;
23470;SDS011;11908;50.806;4.424;2022-12-07T05:40:00;25.70;;;17.52;;
23470;SDS011;11908;50.806;4.424;2022-12-07T05:42:26;29.77;;;17.95;;
23470;SDS011;11908;50.806;4.424;2022-12-07T05:44:51;26.70;;;18.27;;
23470;SDS011;11908;50.806;4.424;2022-12-07T05:47:17;27.90;;;18.70;;
23470;SDS011;11908;50.806;4.424;2022-12-07T05:49:43;26.45;;;17.38;;
23470;SDS011;11908;50.806;4.424;2022-12-07T05:52:08;24.80;;;16.48;;
23470;SDS011;11908;50.806;4.424;2022-12-07T05:54:34;29.83;;;18.10;;
23470;SDS011;11908;50.806;4.424;2022-12-07T05:56:59;23.55;;;17.13;;
23470;SDS011;11908;50.806;4.424;2022-12-07T05:59:25;23.65;;;15.80;;
23470;SDS011;11908;50.806;4.424;2022-12-07T06:01:53;22.00;;;16.52;;
23470;SDS011;11908;50.806;4.424;2022-12-07T06:04:25;23.20;;;16.42;;
23470;SDS011;11908;50.806;4.424;2022-12-07T06:06:52;31.20;;;16.52;;
23470;SDS011;11908;50.806;4.424;2022-12-07T06:09:18;22.55;;;16.10;;
23470;SDS011;11908;50.806;4.424;2022-12-07T06:11:45;22.27;;;15.73;;
23470;SDS011;11908;50.806;4.424;2022-12-07T06:14:30;25.13;;;17.15;;
23470;SDS011;11908;50.806;4.424;2022-12-07T06:16:55;24.85;;;16.38;;
23470;SDS011;11908;50.806;4.424;2022-12-07T06:19:21;30.30;;;17.75;;
23470;SDS011;11908;50.806;4.424;2022-12-07T06:21:47;30.92;;;16.77;;
23470;SDS011;11908;50.806;4.424;2022-12-07T06:24:13;24.42;;;16.83;;
23470;SDS011;11908;50.806;4.424;2022-12-07T06:26:40;25.38;;;17.23;;
23470;SDS011;11908;50.806;4.424;2022-12-07T06:29:06;30.67;;;17.20;;
23470;SDS011;11908;50.806;4.424;2022-12-07T06:31:32;24.45;;;16.67;;
23470;SDS011;11908;50.806;4.424;2022-12-07T06:33:58;20.85;;;15.52;;
23470;SDS011;11908;50.806;4.424;2022-12-07T06:36:24;20.67;;;15.60;;
23470;SDS011;11908;50.806;4.424;2022-12-07T06:38:50;20.17;;;14.50;;
23470;SDS011;11908;50.806;4.424;2022-12-07T06:41:15;22.92;;;16.02;;
23470;SDS011;11908;50.806;4.424;2022-12-07T06:43:41;25.27;;;15.52;;
23470;SDS011;11908;50.806;4.424;2022-12-07T06:46:07;23.55;;;15.18;;
23470;SDS011;11908;50.806;4.424;2022-12-07T06:48:33;24.77;;;14.88;;
23470;SDS011;11908;50.806;4.424;2022-12-07T06:50:59;22.33;;;15.15;;
23470;SDS011;11908;50.806;4.424;2022-12-07T06:53:24;26.95;;;15.95;;
23470;SDS011;11908;50.806;4.424;2022-12-07T06:55:50;20.20;;;14.57;;
23470;SDS011;11908;50.806;4.424;2022-12-07T06:58:16;26.08;;;16.52;;
23470;SDS011;11908;50.806;4.424;2022-12-07T07:00:42;24.70;;;15.77;;
23470;SDS011;11908;50.806;4.424;2022-12-07T07:03:09;25.55;;;16.52;;
23470;SDS011;11908;50.806;4.424;2022-12-07T07:05:35;22.33;;;14.35;;
23470;SDS011;11908;50.806;4.424;2022-12-07T07:08:00;25.20;;;15.52;;
23470;SDS011;11908;50.806;4.424;2022-12-07T07:10:26;31.23;;;14.73;;
23470;SDS011;11908;50.806;4.424;2022-12-07T07:12:52;24.05;;;15.13;;
23470;SDS011;11908;50.806;4.424;2022-12-07T07:15:18;23.70;;;14.45;;
23470;SDS011;11908;50.806;4.424;2022-12-07T07:17:43;25.95;;;14.70;;
23470;SDS011;11908;50.806;4.424;2022-12-07T07:20:10;28.48;;;15.43;;
23470;SDS011;11908;50.806;4.424;2022-12-07T07:22:36;28.42;;;15.25;;
23470;SDS011;11908;50.806;4.424;2022-12-07T07:25:02;26.77;;;12.85;;
23470;SDS011;11908;50.806;4.424;2022-12-07T07:27:28;21.75;;;13.70;;
23470;SDS011;11908;50.806;4.424;2022-12-07T07:29:53;25.38;;;14.23;;
23470;SDS011;11908;50.806;4.424;2022-12-07T07:32:19;24.98;;;13.93;;
23470;SDS011;11908;50.806;4.424;2022-12-07T07:34:46;22.27;;;13.68;;
23470;SDS011;11908;50.806;4.424;2022-12-07T07:37:12;20.77;;;12.85;;
23470;SDS011;11908;50.806;4.424;2022-12-07T07:39:38;23.02;;;13.93;;
23470;SDS011;11908;50.806;4.424;2022-12-07T07:42:04;26.02;;;14.35;;
23470;SDS011;11908;50.806;4.424;2022-12-07T07:44:30;28.67;;;15.27;;
23470;SDS011;11908;50.806;4.424;2022-12-07T07:46:56;29.65;;;15.80;;
23470;SDS011;11908;50.806;4.424;2022-12-07T07:49:21;17.83;;;14.02;;
23470;SDS011;11908;50.806;4.424;2022-12-07T07:51:47;17.40;;;13.95;;
23470;SDS011;11908;50.806;4.424;2022-12-07T07:54:12;26.58;;;14.43;;
23470;SDS011;11908;50.806;4.424;2022-12-07T07:56:38;22.70;;;14.48;;
23470;SDS011;11908;50.806;4.424;2022-12-07T07:59:04;22.88;;;13.57;;
23470;SDS011;11908;50.806;4.424;2022-12-07T08:01:29;21.83;;;12.98;;
23470;SDS011;11908;50.806;4.424;2022-12-07T08:03:55;21.67;;;13.80;;
23470;SDS011;11908;50.806;4.424;2022-12-07T08:06:20;23.17;;;13.90;;
23470;SDS011;11908;50.806;4.424;2022-12-07T08:08:46;21.48;;;14.95;;
23470;SDS011;11908;50.806;4.424;2022-12-07T08:11:12;23.23;;;14.73;;
23470;SDS011;11908;50.806;4.424;2022-12-07T08:13:37;27.33;;;14.95;;
23470;SDS011;11908;50.806;4.424;2022-12-07T08:16:04;30.15;;;17.10;;
23470;SDS011;11908;50.806;4.424;2022-12-07T08:18:32;24.92;;;14.98;;
23470;SDS011;11908;50.806;4.424;2022-12-07T08:21:01;26.65;;;15.13;;
23470;SDS011;11908;50.806;4.424;2022-12-07T08:23:27;21.67;;;15.30;;
23470;SDS011;11908;50.806;4.424;2022-12-07T08:25:53;23.48;;;15.50;;
23470;SDS011;11908;50.806;4.424;2022-12-07T08:28:18;27.42;;;16.00;;
23470;SDS011;11908;50.806;4.424;2022-12-07T08:30:44;24.10;;;15.95;;
23470;SDS011;11908;50.806;4.424;2022-12-07T08:33:10;26.55;;;14.68;;
23470;SDS011;11908;50.806;4.424;2022-12-07T08:35:36;31.30;;;16.38;;
23470;SDS011;11908;50.806;4.424;2022-12-07T08:38:01;21.30;;;16.08;;
23470;SDS011;11908;50.806;4.424;2022-12-07T08:40:28;26.35;;;15.82;;
23470;SDS011;11908;50.806;4.424;2022-12-07T08:42:54;24.67;;;14.93;;
23470;SDS011;11908;50.806;4.424;2022-12-07T08:45:20;19.45;;;13.48;;
23470;SDS011;11908;50.806;4.424;2022-12-07T08:47:48;29.52;;;14.05;;
23470;SDS011;11908;50.806;4.424;2022-12-07T08:50:18;22.90;;;13.70;;
23470;SDS011;11908;50.806;4.424;2022-12-07T08:52:44;21.70;;;12.60;;
23470;SDS011;11908;50.806;4.424;2022-12-07T08:55:16;21.63;;;13.63;;
23470;SDS011;11908;50.806;4.424;2022-12-07T08:57:41;21.05;;;13.07;;
23470;SDS011;11908;50.806;4.424;2022-12-07T09:00:07;20.52;;;13.55;;
23470;SDS011;11908;50.806;4.424;2022-12-07T09:02:34;19.50;;;13.13;;
23470;SDS011;11908;50.806;4.424;2022-12-07T09:05:00;18.17;;;13.70;;
23470;SDS011;11908;50.806;4.424;2022-12-07T09:07:25;19.02;;;12.32;;
23470;SDS011;11908;50.806;4.424;2022-12-07T09:09:52;24.02;;;12.50;;
23470;SDS011;11908;50.806;4.424;2022-12-07T09:12:17;24.20;;;12.00;;
23470;SDS011;11908;50.806;4.424;2022-12-07T09:14:43;21.35;;;12.32;;
23470;SDS011;11908;50.806;4.424;2022-12-07T09:17:09;20.98;;;10.75;;
23470;SDS011;11908;50.806;4.424;2022-12-07T09:19:36;17.48;;;10.05;;
23470;SDS011;11908;50.806;4.424;2022-12-07T09:22:03;16.50;;;10.45;;
23470;SDS011;11908;50.806;4.424;2022-12-07T09:24:30;17.38;;;10.32;;
23470;SDS011;11908;50.806;4.424;2022-12-07T09:26:56;14.10;;;9.40;;
23470;SDS011;11908;50.806;4.424;2022-12-07T09:29:22;15.68;;;9.07;;
23470;SDS011;11908;50.806;4.424;2022-12-07T09:31:48;16.70;;;9.13;;
23470;SDS011;11908;50.806;4.424;2022-12-07T09:34:14;14.00;;;9.05;;
23470;SDS011;11908;50.806;4.424;2022-12-07T09:36:39;15.25;;;8.75;;
23470;SDS011;11908;50.806;4.424;2022-12-07T09:39:05;14.68;;;8.65;;
23470;SDS011;11908;50.806;4.424;2022-12-07T09:41:31;15.55;;;8.57;;
23470;SDS011;11908;50.806;4.424;2022-12-07T09:44:02;13.32;;;8.57;;
23470;SDS011;11908;50.806;4.424;2022-12-07T09:46:29;12.90;;;8.18;;
23470;SDS011;11908;50.806;4.424;2022-12-07T09:49:00;16.00;;;8.15;;
23470;SDS011;11908;50.806;4.424;2022-12-07T09:51:26;15.13;;;8.20;;
23470;SDS011;11908;50.806;4.424;2022-12-07T09:53:52;10.57;;;6.60;;
23470;SDS011;11908;50.806;4.424;2022-12-07T09:56:19;14.50;;;7.43;;
23470;SDS011;11908;50.806;4.424;2022-12-07T09:58:46;13.07;;;7.20;;
23470;SDS011;11908;50.806;4.424;2022-12-07T10:01:17;11.90;;;7.03;;
23470;SDS011;11908;50.806;4.424;2022-12-07T10:03:49;9.63;;;6.57;;
23470;SDS011;11908;50.806;4.424;2022-12-07T10:06:17;16.43;;;8.37;;
23470;SDS011;11908;50.806;4.424;2022-12-07T10:08:43;17.75;;;8.27;;
23470;SDS011;11908;50.806;4.424;2022-12-07T10:11:09;14.35;;;7.90;;
23470;SDS011;11908;50.806;4.424;2022-12-07T10:19:23;14.88;;;8.07;;
23470;SDS011;11908;50.806;4.424;2022-12-07T10:24:30;17.13;;;7.22;;
23470;SDS011;11908;50.806;4.424;2022-12-07T10:26:56;12.73;;;7.53;;
23470;SDS011;11908;50.806;4.424;2022-12-07T10:29:24;14.90;;;7.75;;
23470;SDS011;11908;50.806;4.424;2022-12-07T10:31:57;16.02;;;7.97;;
23470;SDS011;11908;50.806;4.424;2022-12-07T10:34:28;15.43;;;8.23;;
23470;SDS011;11908;50.806;4.424;2022-12-07T10:37:38;16.65;;;8.38;;
23470;SDS011;11908;50.806;4.424;2022-12-07T10:39:52;19.67;;;8.90;;
23470;SDS011;11908;50.806;4.424;2022-12-07T10:42:20;13.68;;;8.02;;
23470;SDS011;11908;50.806;4.424;2022-12-07T10:47:44;18.15;;;9.30;;
23470;SDS011;11908;50.806;4.424;2022-12-07T11:01:31;11.38;;;7.45;;
23470;SDS011;11908;50.806;4.424;2022-12-07T11:12:22;13.10;;;6.60;;
23470;SDS011;11908;50.806;4.424;2022-12-07T11:15:02;11.82;;;6.10;;
23470;SDS011;11908;50.806;4.424;2022-12-07T11:38:47;10.95;;;5.80;;
23470;SDS011;11908;50.806;4.424;2022-12-07T11:41:20;13.65;;;7.13;;
23470;SDS011;11908;50.806;4.424;2022-12-07T11:44:06;10.60;;;7.05;;
23470;SDS011;11908;50.806;4.424;2022-12-07T11:51:45;9.20;;;5.85;;
23470;SDS011;11908;50.806;4.424;2022-12-07T11:54:21;15.75;;;5.30;;
23470;SDS011;11908;50.806;4.424;2022-12-07T11:56:51;9.60;;;5.13;;
23470;SDS011;11908;50.806;4.424;2022-12-07T11:59:27;12.93;;;4.53;;
23470;SDS011;11908;50.806;4.424;2022-12-07T12:02:00;7.15;;;3.90;;
23470;SDS011;11908;50.806;4.424;2022-12-07T12:07:10;8.90;;;4.63;;
23470;SDS011;11908;50.806;4.424;2022-12-07T12:09:55;8.43;;;4.57;;
23470;SDS011;11908;50.806;4.424;2022-12-07T12:20:36;8.35;;;3.53;;
23470;SDS011;11908;50.806;4.424;2022-12-07T12:25:55;6.68;;;2.95;;
23470;SDS011;11908;50.806;4.424;2022-12-07T12:28:29;5.50;;;3.13;;
23470;SDS011;11908;50.806;4.424;2022-12-07T12:34:00;6.00;;;2.88;;
23470;SDS011;11908;50.806;4.424;2022-12-07T12:51:42;7.70;;;2.03;;
23470;SDS011;11908;50.806;4.424;2022-12-07T12:59:35;4.05;;;1.88;;
23470;SDS011;11908;50.806;4.424;2022-12-07T13:02:10;4.40;;;1.80;;
23470;SDS011;11908;50.806;4.424;2022-12-07T13:04:56;8.10;;;1.80;;
23470;SDS011;11908;50.806;4.424;2022-12-07T13:10:47;7.00;;;2.10;;
23470;SDS011;11908;50.806;4.424;2022-12-07T13:15:44;14.60;;;8.15;;
23470;SDS011;11908;50.806;4.424;2022-12-07T13:29:11;5.05;;;2.20;;
23470;SDS011;11908;50.806;4.424;2022-12-07T13:31:49;9.30;;;2.50;;
23470;SDS011;11908;50.806;4.424;2022-12-07T13:36:54;9.00;;;2.95;;
23470;SDS011;11908;50.806;4.424;2022-12-07T13:39:23;7.97;;;3.90;;
23470;SDS011;11908;50.806;4.424;2022-12-07T13:41:51;8.35;;;2.83;;
23470;SDS011;11908;50.806;4.424;2022-12-07T13:44:18;6.72;;;2.80;;
23470;SDS011;11908;50.806;4.424;2022-12-07T13:51:53;5.72;;;2.60;;
23470;SDS011;11908;50.806;4.424;2022-12-07T13:54:20;7.68;;;3.10;;
23470;SDS011;11908;50.806;4.424;2022-12-07T13:56:47;9.25;;;3.35;;
23470;SDS011;11908;50.806;4.424;2022-12-07T13:59:20;9.40;;;3.53;;
23470;SDS011;11908;50.806;4.424;2022-12-07T14:01:48;11.02;;;3.53;;
23470;SDS011;11908;50.806;4.424;2022-12-07T14:07:18;6.35;;;3.55;;
23470;SDS011;11908;50.806;4.424;2022-12-07T14:10:03;11.32;;;3.70;;
23470;SDS011;11908;50.806;4.424;2022-12-07T14:12:31;19.15;;;3.95;;
23470;SDS011;11908;50.806;4.424;2022-12-07T14:15:00;11.45;;;3.97;;
23470;SDS011;11908;50.806;4.424;2022-12-07T14:17:27;7.03;;;3.90;;
23470;SDS011;11908;50.806;4.424;2022-12-07T14:19:54;8.70;;;3.70;;
23470;SDS011;11908;50.806;4.424;2022-12-07T14:22:23;18.33;;;7.93;;
23470;SDS011;11908;50.806;4.424;2022-12-07T14:24:50;6.60;;;2.47;;
23470;SDS011;11908;50.806;4.424;2022-12-07T14:27:23;7.38;;;2.22;;
23470;SDS011;11908;50.806;4.424;2022-12-07T14:29:55;7.43;;;2.42;;
23470;SDS011;11908;50.806;4.424;2022-12-07T14:32:24;7.07;;;2.50;;
23470;SDS011;11908;50.806;4.424;2022-12-07T14:35:01;5.45;;;2.75;;
23470;SDS011;11908;50.806;4.424;2022-12-07T14:37:33;7.53;;;2.80;;
23470;SDS011;11908;50.806;4.424;2022-12-07T14:39:58;4.57;;;2.63;;
23470;SDS011;11908;50.806;4.424;2022-12-07T14:42:26;4.70;;;2.85;;
23470;SDS011;11908;50.806;4.424;2022-12-07T14:44:53;5.78;;;3.30;;
23470;SDS011;11908;50.806;4.424;2022-12-07T14:47:20;5.18;;;3.00;;
23470;SDS011;11908;50.806;4.424;2022-12-07T14:49:46;6.93;;;3.13;;
23470;SDS011;11908;50.806;4.424;2022-12-07T14:52:16;9.73;;;3.50;;
23470;SDS011;11908;50.806;4.424;2022-12-07T14:54:45;11.32;;;4.93;;
23470;SDS011;11908;50.806;4.424;2022-12-07T14:57:11;9.57;;;5.15;;
23470;SDS011;11908;50.806;4.424;2022-12-07T14:59:37;7.82;;;3.03;;
23470;SDS011;11908;50.806;4.424;2022-12-07T15:02:03;3.97;;;2.67;;
23470;SDS011;11908;50.806;4.424;2022-12-07T15:04:30;8.10;;;2.30;;
23470;SDS011;11908;50.806;4.424;2022-12-07T15:07:00;5.80;;;2.30;;
23470;SDS011;11908;50.806;4.424;2022-12-07T15:09:27;9.65;;;2.50;;
23470;SDS011;11908;50.806;4.424;2022-12-07T15:11:53;7.75;;;2.90;;
23470;SDS011;11908;50.806;4.424;2022-12-07T15:14:19;9.18;;;2.97;;
23470;SDS011;11908;50.806;4.424;2022-12-07T15:16:45;8.20;;;3.00;;
23470;SDS011;11908;50.806;4.424;2022-12-07T15:21:52;6.82;;;2.67;;
23470;SDS011;11908;50.806;4.424;2022-12-07T15:24:19;7.75;;;2.75;;
23470;SDS011;11908;50.806;4.424;2022-12-07T15:26:45;5.20;;;2.80;;
23470;SDS011;11908;50.806;4.424;2022-12-07T15:29:11;5.32;;;2.38;;
23470;SDS011;11908;50.806;4.424;2022-12-07T15:31:37;5.20;;;2.47;;
23470;SDS011;11908;50.806;4.424;2022-12-07T15:34:03;8.50;;;3.10;;
23470;SDS011;11908;50.806;4.424;2022-12-07T15:36:30;8.93;;;3.75;;
23470;SDS011;11908;50.806;4.424;2022-12-07T15:38:56;10.93;;;3.70;;
23470;SDS011;11908;50.806;4.424;2022-12-07T15:41:23;9.50;;;4.53;;
23470;SDS011;11908;50.806;4.424;2022-12-07T15:43:48;7.72;;;4.45;;
23470;SDS011;11908;50.806;4.424;2022-12-07T15:46:34;7.72;;;4.32;;
23470;SDS011;11908;50.806;4.424;2022-12-07T15:49:02;10.15;;;4.10;;
23470;SDS011;11908;50.806;4.424;2022-12-07T15:51:29;9.20;;;3.80;;
23470;SDS011;11908;50.806;4.424;2022-12-07T15:53:56;7.47;;;4.13;;
23470;SDS011;11908;50.806;4.424;2022-12-07T15:56:23;10.05;;;4.93;;
23470;SDS011;11908;50.806;4.424;2022-12-07T15:58:49;8.15;;;4.80;;
23470;SDS011;11908;50.806;4.424;2022-12-07T16:01:16;6.97;;;4.40;;
23470;SDS011;11908;50.806;4.424;2022-12-07T16:03:43;11.05;;;4.78;;
23470;SDS011;11908;50.806;4.424;2022-12-07T16:06:09;10.25;;;4.15;;
23470;SDS011;11908;50.806;4.424;2022-12-07T16:08:36;6.43;;;4.65;;
23470;SDS011;11908;50.806;4.424;2022-12-07T16:11:05;7.28;;;4.40;;
23470;SDS011;11908;50.806;4.424;2022-12-07T16:13:32;8.48;;;4.63;;
23470;SDS011;11908;50.806;4.424;2022-12-07T16:16:01;10.73;;;5.30;;
23470;SDS011;11908;50.806;4.424;2022-12-07T16:18:31;7.45;;;5.50;;
23470;SDS011;11908;50.806;4.424;2022-12-07T16:20:56;14.13;;;5.90;;
23470;SDS011;11908;50.806;4.424;2022-12-07T16:23:22;11.15;;;6.38;;
23470;SDS011;11908;50.806;4.424;2022-12-07T16:25:48;15.57;;;6.93;;
23470;SDS011;11908;50.806;4.424;2022-12-07T16:28:13;12.77;;;7.60;;
23470;SDS011;11908;50.806;4.424;2022-12-07T16:30:39;12.88;;;7.13;;
23470;SDS011;11908;50.806;4.424;2022-12-07T16:33:05;9.85;;;6.63;;
23470;SDS011;11908;50.806;4.424;2022-12-07T16:35:31;11.43;;;6.88;;
23470;SDS011;11908;50.806;4.424;2022-12-07T16:37:56;13.88;;;8.15;;
23470;SDS011;11908;50.806;4.424;2022-12-07T16:40:22;11.15;;;7.47;;
23470;SDS011;11908;50.806;4.424;2022-12-07T16:42:48;15.63;;;9.10;;
23470;SDS011;11908;50.806;4.424;2022-12-07T16:45:13;11.98;;;9.25;;
23470;SDS011;11908;50.806;4.424;2022-12-07T16:47:39;16.00;;;9.65;;
23470;SDS011;11908;50.806;4.424;2022-12-07T16:50:06;18.23;;;10.75;;
23470;SDS011;11908;50.806;4.424;2022-12-07T16:52:32;16.77;;;11.02;;
23470;SDS011;11908;50.806;4.424;2022-12-07T16:54:58;11.90;;;9.15;;
23470;SDS011;11908;50.806;4.424;2022-12-07T16:57:24;12.07;;;8.05;;
23470;SDS011;11908;50.806;4.424;2022-12-07T16:59:51;11.50;;;8.73;;
23470;SDS011;11908;50.806;4.424;2022-12-07T17:02:17;13.05;;;9.07;;
23470;SDS011;11908;50.806;4.424;2022-12-07T17:04:43;19.67;;;10.88;;
23470;SDS011;11908;50.806;4.424;2022-12-07T17:07:09;15.40;;;10.90;;
23470;SDS011;11908;50.806;4.424;2022-12-07T17:09:36;15.23;;;11.15;;
23470;SDS011;11908;50.806;4.424;2022-12-07T17:12:01;17.77;;;11.75;;
23470;SDS011;11908;50.806;4.424;2022-12-07T17:14:27;15.85;;;11.35;;